createdAt,value
2023-11-26T00:01:52.882Z,97765.69
2023-11-26T00:04:20.888Z,97767.06
2023-11-26T00:06:47.624Z,97762.28
2023-11-26T00:09:14.262Z,97772.72
2023-11-26T00:11:40.901Z,97769.88
2023-11-26T00:14:07.558Z,97774.13
2023-11-26T00:16:38.560Z,97781.59
2023-11-26T00:19:05.559Z,97787.34
2023-11-26T00:21:33.179Z,97779.81
2023-11-26T00:24:00.278Z,97783.09
2023-11-26T00:26:27.518Z,97787.91
2023-11-26T00:28:54.668Z,97794.91
2023-11-26T00:31:24.083Z,97782.59
2023-11-26T00:33:50.962Z,97794.66
2023-11-26T00:36:17.999Z,97792.84
2023-11-26T00:38:45.941Z,97798.75
2023-11-26T00:41:14.344Z,97806.50
2023-11-26T00:43:41.568Z,97813.19
2023-11-26T00:46:08.536Z,97812.66
2023-11-26T00:48:35.209Z,97815.06
2023-11-26T00:51:01.853Z,97815.09
2023-11-26T00:53:29.263Z,97812.94
2023-11-26T00:55:55.954Z,97816.75
2023-11-26T00:58:22.597Z,97816.53
2023-11-26T01:00:49.327Z,97830.31
2023-11-26T01:03:16.204Z,97836.00
2023-11-26T01:05:43.430Z,97833.69
2023-11-26T01:08:10.087Z,97836.56
2023-11-26T01:10:36.725Z,97845.13
2023-11-26T01:13:03.335Z,97848.34
2023-11-26T01:15:29.978Z,97846.50
2023-11-26T01:17:56.881Z,97851.00
2023-11-26T01:20:23.690Z,97854.75
2023-11-26T01:22:50.354Z,97859.09
2023-11-26T01:25:17.109Z,97860.69
2023-11-26T01:27:43.710Z,97857.53
2023-11-26T01:30:10.955Z,97858.88
2023-11-26T01:32:37.752Z,97861.28
2023-11-26T01:35:05.825Z,97871.31
2023-11-26T01:37:33.115Z,97871.97
2023-11-26T01:39:59.778Z,97867.84
2023-11-26T01:42:26.842Z,97865.16
2023-11-26T01:44:53.446Z,97869.44
2023-11-26T01:47:20.203Z,97872.16
2023-11-26T01:49:46.878Z,97878.94
2023-11-26T01:52:14.766Z,97878.41
2023-11-26T01:54:43.720Z,97876.28
2023-11-26T01:57:11.175Z,97883.47
2023-11-26T01:59:37.950Z,97885.44
2023-11-26T02:02:04.912Z,97882.50
2023-11-26T02:04:31.668Z,97886.53
2023-11-26T02:06:58.354Z,97889.22
2023-11-26T02:09:24.983Z,97887.63
2023-11-26T02:11:51.597Z,97896.41
2023-11-26T02:14:18.263Z,97895.09
2023-11-26T02:16:48.284Z,97893.75
2023-11-26T02:19:36.002Z,97898.03
2023-11-26T02:22:03.105Z,97908.13
2023-11-26T02:24:41.065Z,97899.84
2023-11-26T02:27:07.660Z,97907.59
2023-11-26T02:29:34.285Z,97911.34
2023-11-26T02:32:00.940Z,97908.16
2023-11-26T02:34:27.608Z,97913.75
2023-11-26T02:36:54.231Z,97920.94
2023-11-26T02:39:20.851Z,97927.63
2023-11-26T02:41:47.540Z,97925.50
2023-11-26T02:44:14.220Z,97923.88
2023-11-26T02:46:40.834Z,97913.50
2023-11-26T02:49:09.951Z,97923.63
2023-11-26T02:51:36.811Z,97924.47
2023-11-26T02:54:03.536Z,97922.91
2023-11-26T02:56:30.422Z,97920.78
2023-11-26T02:58:57.336Z,97933.31
2023-11-26T03:01:26.605Z,97937.31
2023-11-26T03:03:53.578Z,97943.16
2023-11-26T03:06:24.082Z,97941.81
2023-11-26T03:09:00.885Z,97938.34
2023-11-26T03:11:46.764Z,97943.16
2023-11-26T03:14:16.597Z,97943.94
2023-11-26T03:16:46.645Z,97939.69
2023-11-26T03:19:13.985Z,97942.09
2023-11-26T03:21:45.764Z,97948.50
2023-11-26T03:24:15.105Z,97954.88
2023-11-26T03:26:42.007Z,97959.16
2023-11-26T03:29:08.783Z,97953.03
2023-11-26T03:31:35.578Z,97958.91
2023-11-26T03:34:07.679Z,97959.97
2023-11-26T03:36:34.281Z,97962.09
2023-11-26T03:39:00.870Z,97967.69
2023-11-26T03:41:27.656Z,97961.56
2023-11-26T03:43:54.425Z,97964.22
2023-11-26T03:46:21.055Z,97961.28
2023-11-26T03:48:47.754Z,97959.16
2023-11-26T03:51:24.728Z,97962.13
2023-11-26T03:53:51.425Z,97962.88
2023-11-26T03:56:18.168Z,97971.16
2023-11-26T03:58:45.349Z,97976.22
2023-11-26T04:01:13.030Z,97972.47
2023-11-26T04:03:40.157Z,97972.72
2023-11-26T04:06:07.307Z,97977.28
2023-11-26T04:08:34.081Z,97973.00
2023-11-26T04:11:00.771Z,97984.72
2023-11-26T04:13:28.554Z,97977.25
2023-11-26T04:15:58.790Z,97978.34
2023-11-26T04:18:26.140Z,97990.56
2023-11-26T04:20:52.939Z,97989.50
2023-11-26T04:23:19.609Z,97987.88
2023-11-26T04:25:46.654Z,97986.56
2023-11-26T04:28:13.776Z,97987.91
2023-11-26T04:30:40.758Z,97997.47
2023-11-26T04:33:08.921Z,97992.97
2023-11-26T04:35:35.786Z,98001.16
2023-11-26T04:38:03.100Z,98009.69
2023-11-26T04:40:29.815Z,98008.06
2023-11-26T04:42:57.000Z,98009.66
2023-11-26T04:45:23.650Z,98014.44
2023-11-26T04:47:50.861Z,98015.78
2023-11-26T04:50:17.531Z,98015.25
2023-11-26T04:52:44.218Z,98013.63
2023-11-26T04:55:11.159Z,98013.88
2023-11-26T04:57:37.750Z,98020.50
2023-11-26T05:00:05.600Z,98023.41
2023-11-26T05:02:34.287Z,98023.69
2023-11-26T05:05:01.972Z,98023.97
2023-11-26T05:07:29.208Z,98024.78
2023-11-26T05:09:56.469Z,98036.44
2023-11-26T05:12:23.314Z,98029.84
2023-11-26T05:14:50.712Z,98032.97
2023-11-26T05:17:17.473Z,98048.66
2023-11-26T05:19:44.155Z,98038.53
2023-11-26T05:22:10.877Z,98044.88
2023-11-26T05:24:39.065Z,98043.28
2023-11-26T05:27:05.978Z,98037.16
2023-11-26T05:29:32.766Z,98038.22
2023-11-26T05:31:59.889Z,98049.38
2023-11-26T05:34:26.633Z,98049.59
2023-11-26T05:36:53.314Z,98046.94
2023-11-26T05:39:20.929Z,98052.47
2023-11-26T05:41:47.651Z,98045.31
2023-11-26T05:44:14.338Z,98042.41
2023-11-26T05:46:46.971Z,98053.03
2023-11-26T05:49:13.615Z,98045.31
2023-11-26T05:51:40.328Z,98056.50
2023-11-26T05:54:08.028Z,98047.75
2023-11-26T05:56:34.720Z,98056.25
2023-11-26T05:59:01.639Z,98061.81
2023-11-26T06:01:28.368Z,98066.06
2023-11-26T06:03:55.910Z,98067.91
2023-11-26T06:06:22.646Z,98066.28
2023-11-26T06:08:49.356Z,98069.19
2023-11-26T06:11:16.004Z,98076.38
2023-11-26T06:13:42.675Z,98072.91
2023-11-26T06:16:09.359Z,98082.47
2023-11-26T06:18:36.025Z,98082.72
2023-11-26T06:21:04.595Z,98082.94
2023-11-26T06:23:31.889Z,98083.75
2023-11-26T06:25:58.480Z,98081.34
2023-11-26T06:28:25.105Z,98082.69
2023-11-26T06:30:51.764Z,98083.75
2023-11-26T06:33:18.433Z,98089.88
2023-11-26T06:35:45.041Z,98089.63
2023-11-26T06:38:11.752Z,98099.19
2023-11-26T06:40:38.350Z,98094.13
2023-11-26T06:43:05.693Z,98100.19
2023-11-26T06:45:32.484Z,98093.25
2023-11-26T06:48:02.567Z,98099.06
2023-11-26T06:50:29.185Z,98099.56
2023-11-26T06:52:55.857Z,98095.06
2023-11-26T06:55:22.619Z,98099.31
2023-11-26T06:57:49.286Z,98102.53
2023-11-26T07:00:16.362Z,98106.22
2023-11-26T07:02:43.084Z,98103.31
2023-11-26T07:05:09.990Z,98116.56
2023-11-26T07:07:36.724Z,98114.44
2023-11-26T07:10:03.646Z,98116.75
2023-11-26T07:12:31.118Z,98120.97
2023-11-26T07:14:57.897Z,98135.00
2023-11-26T07:17:26.562Z,98135.00
2023-11-26T07:19:53.325Z,98136.91
2023-11-26T07:22:22.767Z,98130.84
2023-11-26T07:24:50.176Z,98131.34
2023-11-26T07:27:16.877Z,98133.69
2023-11-26T07:29:43.546Z,98140.31
2023-11-26T07:32:10.262Z,98132.84
2023-11-26T07:34:36.933Z,98143.16
2023-11-26T07:37:05.807Z,98143.66
2023-11-26T07:39:32.920Z,98142.38
2023-11-26T07:41:59.684Z,98143.66
2023-11-26T07:44:26.834Z,98145.28
2023-11-26T07:46:53.478Z,98157.50
2023-11-26T07:49:21.104Z,98151.09
2023-11-26T07:51:50.502Z,98156.66
2023-11-26T07:54:23.674Z,98157.16
2023-11-26T07:56:52.583Z,98155.00
2023-11-26T07:59:19.353Z,98158.16
2023-11-26T08:01:51.026Z,98156.53
2023-11-26T08:04:18.712Z,98160.00
2023-11-26T08:06:51.392Z,98157.16
2023-11-26T08:09:18.709Z,98155.75
2023-11-26T08:11:46.607Z,98161.06
2023-11-26T08:14:13.814Z,98168.72
2023-11-26T08:16:41.254Z,98167.38
2023-11-26T08:19:13.638Z,98164.41
2023-11-26T08:21:43.536Z,98165.47
2023-11-26T08:24:15.279Z,98166.28
2023-11-26T08:26:42.753Z,98161.50
2023-11-26T08:29:10.999Z,98161.50
2023-11-26T08:31:40.819Z,98166.81
2023-11-26T08:34:08.732Z,98169.47
2023-11-26T08:36:37.392Z,98171.34
2023-11-26T08:39:05.964Z,98172.09
2023-11-26T08:41:32.838Z,98173.94
2023-11-26T08:43:59.478Z,98168.63
2023-11-26T08:46:28.245Z,98169.72
2023-11-26T08:48:55.037Z,98172.94
2023-11-26T08:51:21.862Z,98169.22
2023-11-26T08:53:48.655Z,98156.19
2023-11-26T08:56:15.337Z,98166.03
2023-11-26T08:58:42.036Z,98171.38
2023-11-26T09:01:08.651Z,98169.28
2023-11-26T09:03:35.500Z,98147.78
2023-11-26T09:06:02.284Z,98158.94
2023-11-26T09:08:28.897Z,98160.00
2023-11-26T09:10:57.958Z,98169.03
2023-11-26T09:13:25.054Z,98178.03
2023-11-26T09:15:51.762Z,98168.22
2023-11-26T09:18:18.404Z,98175.38
2023-11-26T09:20:45.045Z,98175.66
2023-11-26T09:23:11.691Z,98178.03
2023-11-26T09:25:38.373Z,98173.03
2023-11-26T09:28:05.032Z,98184.47
2023-11-26T09:30:32.424Z,98184.72
2023-11-26T09:32:59.165Z,98183.66
2023-11-26T09:35:25.813Z,98181.25
2023-11-26T09:37:52.797Z,98185.75
2023-11-26T09:40:19.481Z,98184.72
2023-11-26T09:42:50.476Z,98177.00
2023-11-26T09:45:17.387Z,98165.88
2023-11-26T09:47:44.118Z,98164.31
2023-11-26T09:50:10.780Z,98169.63
2023-11-26T09:52:41.898Z,98166.47
2023-11-26T09:55:10.052Z,98170.44
2023-11-26T09:57:38.713Z,98161.91
2023-11-26T10:00:07.559Z,98148.38
2023-11-26T10:02:34.466Z,98136.69
2023-11-26T10:05:01.387Z,98124.56
2023-11-26T10:07:36.359Z,98120.53
2023-11-26T10:10:10.461Z,98115.00
2023-11-26T10:12:59.354Z,98114.72
2023-11-26T10:15:27.767Z,98108.91
2023-11-26T10:18:22.316Z,98107.09
2023-11-26T10:20:54.994Z,98095.88
2023-11-26T10:23:30.117Z,98101.44
2023-11-26T10:25:56.844Z,98091.06
2023-11-26T10:28:23.443Z,98093.72
2023-11-26T10:30:50.171Z,98092.19
2023-11-26T10:33:17.025Z,98100.41
2023-11-26T10:35:57.051Z,98099.91
2023-11-26T10:38:35.704Z,98091.25
2023-11-26T10:41:02.420Z,98095.16
2023-11-26T10:43:33.767Z,98087.44
2023-11-26T10:46:06.051Z,98091.41
2023-11-26T10:48:32.759Z,98098.03
2023-11-26T10:51:13.264Z,98096.97
2023-11-26T10:54:04.681Z,98094.47
2023-11-26T10:56:50.453Z,98096.00
2023-11-26T10:59:20.564Z,98101.75
2023-11-26T11:01:47.482Z,98101.75
2023-11-26T11:04:15.602Z,98098.53
2023-11-26T11:06:43.082Z,98103.84
2023-11-26T11:09:15.881Z,98095.38
2023-11-26T11:12:00.701Z,98101.19
2023-11-26T11:14:27.987Z,98100.25
2023-11-26T11:16:55.249Z,98102.63
2023-11-26T11:19:56.943Z,98100.16
2023-11-26T11:22:42.924Z,98097.44
2023-11-26T11:25:18.481Z,98098.50
2023-11-26T11:28:00.870Z,98093.06
2023-11-26T11:30:33.792Z,98085.81
2023-11-26T11:33:08.121Z,98082.91
2023-11-26T11:35:37.887Z,98085.59
2023-11-26T11:38:05.560Z,98088.53
2023-11-26T11:41:21.095Z,98091.44
2023-11-26T11:43:48.142Z,98095.84
2023-11-26T11:46:29.906Z,98101.31
2023-11-26T11:49:00.641Z,98102.13
2023-11-26T11:51:30.446Z,98100.97
2023-11-26T11:54:11.717Z,98097.66
2023-11-26T11:56:40.230Z,98100.97
2023-11-26T11:59:06.929Z,98100.75
2023-11-26T12:01:34.446Z,98102.34
2023-11-26T12:04:01.865Z,98102.91
2023-11-26T12:06:29.145Z,98099.75
2023-11-26T12:08:59.780Z,98098.16
2023-11-26T12:11:26.494Z,98095.50
2023-11-26T12:13:53.119Z,98093.38
2023-11-26T12:16:20.379Z,98086.22
2023-11-26T12:18:47.211Z,98084.34
2023-11-26T12:21:15.095Z,98086.75
2023-11-26T12:23:41.780Z,98086.16
2023-11-26T12:26:08.847Z,98082.16
2023-11-26T12:28:45.305Z,98083.75
2023-11-26T12:31:12.120Z,98082.16
2023-11-26T12:33:44.533Z,98075.25
2023-11-26T12:36:13.481Z,98070.47
2023-11-26T12:38:43.755Z,98076.06
2023-11-26T12:41:10.838Z,98068.63
2023-11-26T12:43:44.136Z,98063.56
2023-11-26T12:46:11.516Z,98071.53
2023-11-26T12:48:39.634Z,98071.03
2023-11-26T12:51:06.580Z,98065.44
2023-11-26T12:53:33.621Z,98069.44
2023-11-26T12:56:00.245Z,98066.78
2023-11-26T12:58:29.701Z,98062.59
2023-11-26T13:00:57.188Z,98061.25
2023-11-26T13:03:24.320Z,98053.19
2023-11-26T13:05:51.966Z,98054.88
2023-11-26T13:08:23.148Z,98056.50
2023-11-26T13:10:59.244Z,98056.19
2023-11-26T13:13:32.287Z,98056.16
2023-11-26T13:16:00.361Z,98048.00
2023-11-26T13:18:27.850Z,98050.91
2023-11-26T13:20:57.528Z,98048.28
2023-11-26T13:23:25.955Z,98038.41
2023-11-26T13:25:53.344Z,98048.47
2023-11-26T13:28:21.352Z,98038.06
2023-11-26T13:30:48.443Z,98040.66
2023-11-26T13:33:15.541Z,98039.44
2023-11-26T13:35:42.562Z,98026.66
2023-11-26T13:38:09.383Z,98032.75
2023-11-26T13:40:38.916Z,98023.69
2023-11-26T13:43:13.293Z,98039.22
2023-11-26T13:45:42.056Z,98027.50
2023-11-26T13:48:11.629Z,98031.25
2023-11-26T13:50:39.303Z,98020.88
2023-11-26T13:53:08.001Z,98029.13
2023-11-26T13:55:36.172Z,98030.19
2023-11-26T13:58:06.171Z,98031.75
2023-11-26T14:00:33.412Z,98028.56
2023-11-26T14:03:02.134Z,98030.72
2023-11-26T14:05:29.264Z,98031.28
2023-11-26T14:07:55.933Z,98030.50
2023-11-26T14:10:23.468Z,98035.00
2023-11-26T14:12:50.938Z,98035.00
2023-11-26T14:15:17.622Z,98037.63
2023-11-26T14:17:44.922Z,98032.56
2023-11-26T14:20:13.450Z,98035.22
2023-11-26T14:22:43.032Z,98031.22
2023-11-26T14:25:12.654Z,98026.75
2023-11-26T14:27:39.282Z,98024.34
2023-11-26T14:30:06.555Z,98020.38
2023-11-26T14:32:33.281Z,98031.28
2023-11-26T14:34:59.971Z,98026.22
2023-11-26T14:37:26.622Z,98024.34
2023-11-26T14:39:53.277Z,98024.59
2023-11-26T14:42:23.420Z,98025.72
2023-11-26T14:44:50.044Z,98022.78
2023-11-26T14:47:16.704Z,98022.53
2023-11-26T14:49:43.328Z,98020.91
2023-11-26T14:52:10.073Z,98018.78
2023-11-26T14:54:37.478Z,98013.75
2023-11-26T14:57:04.393Z,98012.13
2023-11-26T14:59:33.293Z,98012.94
2023-11-26T15:02:00.296Z,98011.34
2023-11-26T15:04:27.036Z,98010.50
2023-11-26T15:06:56.958Z,98013.97
2023-11-26T15:09:25.824Z,98013.97
2023-11-26T15:11:52.527Z,98014.22
2023-11-26T15:14:19.287Z,98007.28
2023-11-26T15:16:46.244Z,98002.56
2023-11-26T15:19:12.904Z,98006.81
2023-11-26T15:21:39.605Z,98006.00
2023-11-26T15:24:06.301Z,97999.63
2023-11-26T15:26:32.965Z,98002.81
2023-11-26T15:28:59.597Z,97996.19
2023-11-26T15:31:26.515Z,98010.53
2023-11-26T15:33:53.269Z,98001.78
2023-11-26T15:36:22.911Z,97996.16
2023-11-26T15:38:52.460Z,97996.16
2023-11-26T15:41:20.007Z,97995.91
2023-11-26T15:43:50.207Z,97993.81
2023-11-26T15:46:23.082Z,97997.25
2023-11-26T15:48:50.216Z,97999.38
2023-11-26T15:51:17.063Z,98008.69
2023-11-26T15:53:43.776Z,98009.16
2023-11-26T15:56:28.360Z,97997.47
2023-11-26T15:58:55.015Z,98004.16
2023-11-26T16:01:21.754Z,98001.75
2023-11-26T16:03:48.580Z,98001.19
2023-11-26T16:06:15.268Z,98005.19
2023-11-26T16:08:41.950Z,97999.06
2023-11-26T16:11:09.528Z,97995.63
2023-11-26T16:13:36.714Z,97999.91
2023-11-26T16:16:03.457Z,97994.84
2023-11-26T16:18:34.595Z,97996.13
2023-11-26T16:21:04.276Z,97999.09
2023-11-26T16:23:31.114Z,98001.19
2023-11-26T16:25:58.190Z,97995.06
2023-11-26T16:28:25.992Z,97998.78
2023-11-26T16:30:52.681Z,98003.28
2023-11-26T16:33:38.249Z,98003.34
2023-11-26T16:36:06.715Z,98004.66
2023-11-26T16:38:33.935Z,98009.97
2023-11-26T16:41:00.842Z,98012.63
2023-11-26T16:43:27.460Z,98006.25
2023-11-26T16:45:54.098Z,98005.47
2023-11-26T16:48:22.882Z,98000.41
2023-11-26T16:50:49.626Z,98003.81
2023-11-26T16:53:16.256Z,98011.56
2023-11-26T16:55:43.174Z,98009.69
2023-11-26T16:58:09.850Z,98005.66
2023-11-26T17:00:36.548Z,97997.16
2023-11-26T17:03:03.621Z,98012.09
2023-11-26T17:05:30.741Z,98003.59
2023-11-26T17:07:57.432Z,98004.63
2023-11-26T17:10:24.399Z,98003.06
2023-11-26T17:12:51.202Z,98000.66
2023-11-26T17:15:18.206Z,97998.44
2023-11-26T17:17:44.979Z,97993.44
2023-11-26T17:20:11.889Z,97994.72
2023-11-26T17:22:38.531Z,97987.31
2023-11-26T17:25:06.612Z,97996.59
2023-11-26T17:27:33.325Z,97990.22
2023-11-26T17:29:59.968Z,97993.94
2023-11-26T17:32:26.682Z,97990.22
2023-11-26T17:34:55.093Z,97990.78
2023-11-26T17:37:24.028Z,97976.50
2023-11-26T17:39:50.689Z,97991.63
2023-11-26T17:42:17.330Z,97987.56
2023-11-26T17:44:43.974Z,97984.94
2023-11-26T17:47:13.376Z,97976.44
2023-11-26T17:49:46.634Z,97986.53
2023-11-26T17:52:13.561Z,97990.78
2023-11-26T17:54:40.611Z,97982.50
2023-11-26T17:57:07.823Z,97987.31
2023-11-26T17:59:34.585Z,97983.88
2023-11-26T18:02:01.338Z,97973.25
2023-11-26T18:04:29.952Z,97985.16
2023-11-26T18:06:56.779Z,97980.66
2023-11-26T18:09:23.511Z,97975.84
2023-11-26T18:11:50.856Z,97974.81
2023-11-26T18:14:17.560Z,97974.78
2023-11-26T18:16:48.043Z,97974.47
2023-11-26T18:19:15.977Z,97987.00
2023-11-26T18:21:43.525Z,97977.69
2023-11-26T18:24:10.583Z,97976.16
2023-11-26T18:26:37.340Z,97977.44
2023-11-26T18:29:06.137Z,97975.34
2023-11-26T18:31:33.655Z,97978.00
2023-11-26T18:34:00.372Z,97973.19
2023-11-26T18:36:27.198Z,97966.28
2023-11-26T18:38:54.213Z,97962.81
2023-11-26T18:41:21.516Z,97961.25
2023-11-26T18:43:49.012Z,97956.16
2023-11-26T18:46:16.345Z,97958.81
2023-11-26T18:48:43.087Z,97953.75
2023-11-26T18:51:10.797Z,97958.63
2023-11-26T18:53:37.452Z,97960.34
2023-11-26T18:56:04.566Z,97963.00
2023-11-26T18:58:31.199Z,97965.69
2023-11-26T19:00:57.967Z,97958.53
2023-11-26T19:03:24.621Z,97963.03
2023-11-26T19:05:51.328Z,97961.72
2023-11-26T19:08:17.959Z,97955.03
2023-11-26T19:10:45.141Z,97949.47
2023-11-26T19:13:11.860Z,97949.72
2023-11-26T19:15:38.551Z,97951.59
2023-11-26T19:18:05.224Z,97954.00
2023-11-26T19:20:31.845Z,97948.19
2023-11-26T19:22:58.573Z,97947.66
2023-11-26T19:25:25.243Z,97949.75
2023-11-26T19:27:51.914Z,97954.00
2023-11-26T19:30:18.571Z,97958.25
2023-11-26T19:32:45.231Z,97955.03
2023-11-26T19:35:11.904Z,97957.19
2023-11-26T19:37:38.537Z,97949.75
2023-11-26T19:40:05.642Z,97951.59
2023-11-26T19:42:32.453Z,97951.88
2023-11-26T19:44:59.105Z,97952.94
2023-11-26T19:47:25.724Z,97951.09
2023-11-26T19:49:53.278Z,97954.25
2023-11-26T19:52:19.938Z,97955.03
2023-11-26T19:54:47.069Z,97954.47
2023-11-26T19:57:13.763Z,97957.94
2023-11-26T19:59:40.557Z,97951.81
2023-11-26T20:02:07.272Z,97950.75
2023-11-26T20:04:34.081Z,97950.75
2023-11-26T20:07:00.785Z,97952.38
2023-11-26T20:09:27.842Z,97957.13
2023-11-26T20:11:55.282Z,97955.03
2023-11-26T20:14:22.704Z,97951.81
2023-11-26T20:16:49.381Z,97944.59
2023-11-26T20:19:16.195Z,97950.72
2023-11-26T20:21:43.053Z,97949.38
2023-11-26T20:24:09.989Z,97952.38
2023-11-26T20:26:36.703Z,97954.47
2023-11-26T20:29:03.404Z,97955.75
2023-11-26T20:31:30.102Z,97942.59
2023-11-26T20:33:59.372Z,97944.84
2023-11-26T20:36:26.068Z,97941.41
2023-11-26T20:38:54.309Z,97943.72
2023-11-26T20:41:20.961Z,97941.56
2023-11-26T20:43:47.920Z,97944.72
2023-11-26T20:46:21.915Z,97938.50
2023-11-26T20:48:49.861Z,97937.94
2023-11-26T20:51:29.231Z,97931.84
2023-11-26T20:53:57.028Z,97935.84
2023-11-26T20:56:27.065Z,97934.38
2023-11-26T20:58:58.261Z,97933.94
2023-11-26T21:01:25.958Z,97933.69
2023-11-26T21:03:52.710Z,97917.28
2023-11-26T21:06:19.541Z,97926.06
2023-11-26T21:08:46.327Z,97918.31
2023-11-26T21:11:13.762Z,97920.94
2023-11-26T21:13:40.697Z,97929.16
2023-11-26T21:16:07.697Z,97923.06
2023-11-26T21:18:35.014Z,97929.19
2023-11-26T21:21:01.769Z,97926.81
2023-11-26T21:23:28.889Z,97922.56
2023-11-26T21:25:55.788Z,97926.53
2023-11-26T21:28:22.594Z,97921.50
2023-11-26T21:30:49.357Z,97928.38
2023-11-26T21:33:19.220Z,97923.59
2023-11-26T21:35:46.105Z,97919.84
2023-11-26T21:38:13.046Z,97914.03
2023-11-26T21:40:45.481Z,97906.06
2023-11-26T21:43:16.832Z,97910.81
2023-11-26T21:45:43.792Z,97910.03
2023-11-26T21:48:19.967Z,97908.16
2023-11-26T21:50:46.929Z,97902.06
2023-11-26T21:53:13.972Z,97904.22
2023-11-26T21:55:40.640Z,97895.44
2023-11-26T21:58:07.323Z,97890.94
2023-11-26T22:00:34.033Z,97889.56
2023-11-26T22:03:00.908Z,97901.81
2023-11-26T22:05:28.634Z,97893.59
2023-11-26T22:07:55.367Z,97893.84
2023-11-26T22:10:21.983Z,97885.84
2023-11-26T22:12:48.745Z,97879.72
2023-11-26T22:15:15.489Z,97881.59
2023-11-26T22:17:42.163Z,97876.59
2023-11-26T22:20:09.571Z,97878.94
2023-11-26T22:22:36.227Z,97879.22
2023-11-26T22:25:02.934Z,97875.22
2023-11-26T22:27:29.593Z,97878.44
2023-11-26T22:29:56.230Z,97881.88
2023-11-26T22:32:22.883Z,97869.94
2023-11-26T22:34:49.972Z,97872.06
2023-11-26T22:37:16.704Z,97865.16
2023-11-26T22:39:43.346Z,97862.25
2023-11-26T22:42:09.987Z,97861.97
2023-11-26T22:44:36.633Z,97870.97
2023-11-26T22:47:03.360Z,97876.03
2023-11-26T22:49:30.021Z,97863.53
2023-11-26T22:51:56.638Z,97865.63
2023-11-26T22:54:23.264Z,97865.38
2023-11-26T22:56:49.914Z,97864.56
2023-11-26T22:59:16.602Z,97863.53
2023-11-26T23:01:43.321Z,97861.66
2023-11-26T23:04:10.818Z,97858.22
2023-11-26T23:06:38.375Z,97868.31
2023-11-26T23:09:07.348Z,97859.75
2023-11-26T23:11:34.011Z,97862.94
2023-11-26T23:14:00.643Z,97854.72
2023-11-26T23:16:27.359Z,97854.72
2023-11-26T23:18:54.011Z,97851.81
2023-11-26T23:21:21.110Z,97842.78
2023-11-26T23:23:52.218Z,97845.97
2023-11-26T23:26:20.855Z,97845.97
2023-11-26T23:28:47.787Z,97846.22
2023-11-26T23:31:15.937Z,97839.59
2023-11-26T23:33:42.997Z,97835.09
2023-11-26T23:36:10.735Z,97834.28
2023-11-26T23:38:37.442Z,97834.03
2023-11-26T23:41:04.146Z,97841.72
2023-11-26T23:43:30.760Z,97829.53
2023-11-26T23:45:57.483Z,97834.03
2023-11-26T23:48:24.140Z,97831.09
2023-11-26T23:50:50.750Z,97835.09
2023-11-26T23:53:17.346Z,97829.75
2023-11-26T23:55:43.995Z,97828.16
2023-11-26T23:58:10.646Z,97823.63
